Map

Track Data

SID SEASON NUMBER BASIN SUBBASIN NAME ISO_TIME NATURE LAT LON WMO_WIND WMO_PRES WMO_AGENCY TRACK_TYPE DIST2LAND LANDFALL IFLAG USA_AGENCY USA_ATCF_ID USA_LAT USA_LON USA_RECORD USA_STATUS USA_WIND USA_PRES USA_SSHS USA_R34_NE USA_R34_SE USA_R34_SW USA_R34_NW USA_R50_NE USA_R50_SE USA_R50_SW USA_R50_NW USA_R64_NE USA_R64_SE USA_R64_SW USA_R64_NW USA_POCI USA_ROCI USA_RMW USA_EYE TOKYO_LAT TOKYO_LON TOKYO_GRADE TOKYO_WIND TOKYO_PRES TOKYO_R50_DIR TOKYO_R50_LONG TOKYO_R50_SHORT TOKYO_R30_DIR TOKYO_R30_LONG TOKYO_R30_SHORT TOKYO_LAND CMA_LAT CMA_LON CMA_CAT CMA_WIND CMA_PRES HKO_LAT HKO_LON HKO_CAT HKO_WIND HKO_PRES NEWDELHI_LAT NEWDELHI_LON NEWDELHI_GRADE NEWDELHI_WIND NEWDELHI_PRES NEWDELHI_CI NEWDELHI_DP NEWDELHI_POCI REUNION_LAT REUNION_LON REUNION_TYPE REUNION_WIND REUNION_PRES REUNION_TNUM REUNION_CI REUNION_RMW REUNION_R34_NE REUNION_R34_SE REUNION_R34_SW REUNION_R34_NW REUNION_R50_NE REUNION_R50_SE REUNION_R50_SW REUNION_R50_NW REUNION_R64_NE REUNION_R64_SE REUNION_R64_SW REUNION_R64_NW BOM_LAT BOM_LON BOM_TYPE BOM_WIND BOM_PRES BOM_TNUM BOM_CI BOM_RMW BOM_R34_NE BOM_R34_SE BOM_R34_SW BOM_R34_NW BOM_R50_NE BOM_R50_SE BOM_R50_SW BOM_R50_NW BOM_R64_NE BOM_R64_SE BOM_R64_SW BOM_R64_NW BOM_ROCI BOM_POCI BOM_EYE BOM_POS_METHOD BOM_PRES_METHOD NADI_LAT NADI_LON NADI_CAT NADI_WIND NADI_PRES WELLINGTON_LAT WELLINGTON_LON WELLINGTON_WIND WELLINGTON_PRES DS824_LAT DS824_LON DS824_STAGE DS824_WIND DS824_PRES TD9636_LAT TD9636_LON TD9636_STAGE TD9636_WIND TD9636_PRES TD9635_LAT TD9635_LON TD9635_WIND TD9635_PRES TD9635_ROCI NEUMANN_LAT NEUMANN_LON NEUMANN_CLASS NEUMANN_WIND NEUMANN_PRES MLC_LAT MLC_LON MLC_CLASS MLC_WIND MLC_PRES USA_GUST BOM_GUST BOM_GUST_PER REUNION_GUST REUNION_GUST_PER USA_SEAHGT USA_SEARAD_NE USA_SEARAD_SE USA_SEARAD_SW USA_SEARAD_NW STORM_SPEED STORM_DIR
1941225N21145 1941 44 WP MM NOT_NAMED 1941-08-12 21:00:00 NR 20.9000 145.000 main 1640 1640 __________O___ -1 20.9000 145.000 2 7 203
1941225N21145 1941 44 WP MM NOT_NAMED 1941-08-13 00:00:00 NR 20.5899 144.862 main 1669 1667 __________P___ -1 20.5899 144.862 2 7 206
1941225N21145 1941 44 WP MM NOT_NAMED 1941-08-13 03:00:00 NR 20.3039 144.689 main 1696 1696 __________P___ -1 20.3039 144.689 2 7 217
1941225N21145 1941 44 WP MM NOT_NAMED 1941-08-13 06:00:00 NR 20.0660 144.447 main 1709 1709 __________P___ -1 20.0660 144.447 2 7 234
1941225N21145 1941 44 WP MM NOT_NAMED 1941-08-13 09:00:00 NR 19.9000 144.100 main 1716 1707 __________O___ -1 19.9000 144.100 2 8 252
1941225N21145 1941 44 WP MM NOT_NAMED 1941-08-13 12:00:00 NR 19.8242 143.638 main 1703 1686 __________P___ -1 19.8242 143.638 2 9 266
1941225N21145 1941 44 WP MM NOT_NAMED 1941-08-13 15:00:00 NR 19.8364 143.144 main 1681 1654 __________P___ -1 19.8364 143.144 2 9 277
1941225N21145 1941 44 WP MM NOT_NAMED 1941-08-13 18:00:00 NR 19.9301 142.729 main 1654 1626 __________P___ -1 19.9301 142.729 2 7 294
1941225N21145 1941 44 WP MM NOT_NAMED 1941-08-13 21:00:00 NR 20.1000 142.500 main 1626 1605 __________O___ -1 20.1000 142.500 2 5 341
1941225N21145 1941 44 WP MM NOT_NAMED 1941-08-14 00:00:00 NR 20.3561 142.577 main 1599 1577 __________P___ -1 20.3561 142.577 2 7 30
1941225N21145 1941 44 WP MM NOT_NAMED 1941-08-14 03:00:00 NR 20.6772 142.851 main 1581 1564 __________P___ -1 20.6772 142.851 2 9 44
1941225N21145 1941 44 WP MM NOT_NAMED 1941-08-14 06:00:00 NR 21.0096 143.249 main 1564 1553 __________P___ -1 21.0096 143.249 2 10 52
1941225N21145 1941 44 WP MM NOT_NAMED 1941-08-14 09:00:00 NR 21.3000 143.700 main 1558 1552 __________O___ -1 21.3000 143.700 2 10 63
1941225N21145 1941 44 WP MM NOT_NAMED 1941-08-14 12:00:00 NR 21.4438 144.171 main 1564 1553 __________P___ -1 21.4438 144.171 2 9 75
1941225N21145 1941 44 WP MM NOT_NAMED 1941-08-14 15:00:00 NR 21.5439 144.663 main 1567 1556 __________P___ -1 21.5439 144.663 2 9 77
1941225N21145 1941 44 WP MM NOT_NAMED 1941-08-14 18:00:00 NR 21.6469 145.098 main 1568 1554 __________P___ -1 21.6469 145.098 2 7 70
1941225N21145 1941 44 WP MM NOT_NAMED 1941-08-14 21:00:00 NR 21.8000 145.400 main 1557 1532 __________O___ -1 21.8000 145.400 2 7 41
1941225N21145 1941 44 WP MM NOT_NAMED 1941-08-15 00:00:00 NR 22.1589 145.580 main 1522 1490 __________P___ -1 22.1589 145.580 2 8 14
1941225N21145 1941 44 WP MM NOT_NAMED 1941-08-15 03:00:00 NR 22.5593 145.605 main 1480 1445 __________P___ -1 22.5593 145.605 2 8 351
1941225N21145 1941 44 WP MM NOT_NAMED 1941-08-15 06:00:00 NR 22.9052 145.453 main 1445 1410 __________P___ -1 22.9052 145.453 2 7 319
1941225N21145 1941 44 WP MM NOT_NAMED 1941-08-15 09:00:00 NR 23.1000 145.100 main 1410 1403 __________O___ -1 23.1000 145.100 2 10 266
1941225N21145 1941 44 WP MM NOT_NAMED 1941-08-15 12:00:00 NR 22.8296 144.380 main 1419 1413 __________P___ -1 22.8296 144.380 2 16 245
1941225N21145 1941 44 WP MM NOT_NAMED 1941-08-15 15:00:00 NR 22.4272 143.502 main 1436 1426 __________P___ -1 22.4272 143.502 2 17 245
1941225N21145 1941 44 WP MM NOT_NAMED 1941-08-15 18:00:00 NR 22.1103 142.675 main 1431 1404 __________P___ -1 22.1103 142.675 2 13 256
1941225N21145 1941 44 WP MM NOT_NAMED 1941-08-15 21:00:00 NR 22.1000 142.100 main 1404 1339 __________O___ -1 22.1000 142.100 2 9 315
1941225N21145 1941 44 WP MM NOT_NAMED 1941-08-16 00:00:00 NR 22.7298 142.016 main 1339 1259 __________P___ -1 22.7298 142.016 2 16 4
1941225N21145 1941 44 WP MM NOT_NAMED 1941-08-16 03:00:00 NR 23.6781 142.203 main 1249 1160 __________P___ -1 23.6781 142.203 2 21 14
1941225N21145 1941 44 WP MM NOT_NAMED 1941-08-16 06:00:00 NR 24.7624 142.564 main 1153 1068 __________P___ -1 24.7624 142.564 2 23 19
1941225N21145 1941 44 WP MM NOT_NAMED 1941-08-16 09:00:00 NR 25.8000 143.000 main 1057 984 __________O___ -1 25.8000 143.000 2 20 22
1941225N21145 1941 44 WP MM NOT_NAMED 1941-08-16 12:00:00 NR 26.5985 143.376 main 984 925 __________P___ -1 26.5985 143.376 2 17 25
1941225N21145 1941 44 WP MM NOT_NAMED 1941-08-16 15:00:00 NR 27.3106 143.797 main 925 880 __________P___ -1 27.3106 143.797 2 15 30
1941225N21145 1941 44 WP MM NOT_NAMED 1941-08-16 18:00:00 NR 27.9173 144.220 main 880 850 __________P___ -1 27.9173 144.220 2 13 33
1941225N21145 1941 44 WP MM NOT_NAMED 1941-08-16 21:00:00 NR 28.4000 144.600 main 850 831 __________O___ -1 28.4000 144.600 2 10 34
1941225N21145 1941 44 WP MM NOT_NAMED 1941-08-17 00:00:00 NR 28.7504 144.870 main 827 820 __________P___ -1 28.7504 144.870 2 7 36
1941225N21145 1941 44 WP MM NOT_NAMED 1941-08-17 03:00:00 NR 28.9839 145.091 main 820 816 __________P___ -1 28.9839 145.091 2 5 43
1941225N21145 1941 44 WP MM NOT_NAMED 1941-08-17 06:00:00 NR 29.1505 145.291 main 811 807 __________P___ -1 29.1505 145.291 2 5 49
1941225N21145 1941 44 WP MM NOT_NAMED 1941-08-17 09:00:00 NR 29.3000 145.500 main 813 800 __________O___ -1 29.3000 145.500 2 5 44
1941225N21145 1941 44 WP MM NOT_NAMED 1941-08-17 12:00:00 NR 29.5097 145.689 main 806 794 __________P___ -1 29.5097 145.689 2 5 40
1941225N21145 1941 44 WP MM NOT_NAMED 1941-08-17 15:00:00 NR 29.7123 145.902 main 800 795 __________P___ -1 29.7123 145.902 2 6 47
1941225N21145 1941 44 WP MM NOT_NAMED 1941-08-17 18:00:00 NR 29.9089 146.189 main 802 800 __________P___ -1 29.9089 146.189 2 7 57
1941225N21145 1941 44 WP MM NOT_NAMED 1941-08-17 21:00:00 NR 30.1000 146.600 main 811 810 __________O___ -1 30.1000 146.600 2 10 63
1941225N21145 1941 44 WP MM NOT_NAMED 1941-08-18 00:00:00 NR 30.3784 147.232 main 829 829 __________P___ -1 30.3784 147.232 2 13 66
1941225N21145 1941 44 WP MM NOT_NAMED 1941-08-18 03:00:00 NR 30.6341 147.983 main 870 870 __________P___ -1 30.6341 147.983 2 14 72
1941225N21145 1941 44 WP MM NOT_NAMED 1941-08-18 06:00:00 NR 30.7972 148.769 main 913 913 __________P___ -1 30.7972 148.769 2 13 83
1941225N21145 1941 44 WP MM NOT_NAMED 1941-08-18 09:00:00 NR 30.8000 149.500 main 966 966 __________O___ -1 30.8000 149.500 2 11 102
1941225N21145 1941 44 WP MM NOT_NAMED 1941-08-18 12:00:00 NR 30.5678 150.075 main 1025 1025 __________P___ -1 30.5678 150.075 2 11 124
1941225N21145 1941 44 WP MM NOT_NAMED 1941-08-18 15:00:00 NR 30.1782 150.574 main 1090 1090 __________P___ -1 30.1782 150.574 2 12 137
1941225N21145 1941 44 WP MM NOT_NAMED 1941-08-18 18:00:00 NR 29.6995 151.011 main 1155 1155 __________P___ -1 29.6995 151.011 2 12 144
1941225N21145 1941 44 WP MM NOT_NAMED 1941-08-18 21:00:00 NR 29.2000 151.400 main 1220 1220 __________O___ -1 29.2000 151.400 2 11 142
1941225N21145 1941 44 WP MM NOT_NAMED 1941-08-19 00:00:00 NR 28.8103 151.821 main 1278 1278 __________P___ -1 28.8103 151.821 2 11 139
1941225N21145 1941 44 WP MM NOT_NAMED 1941-08-19 03:00:00 NR 28.4097 152.192 main 1337 1337 __________P___ -1 28.4097 152.192 2 10 145
1941225N21145 1941 44 WP MM NOT_NAMED 1941-08-19 06:00:00 NR 27.9792 152.493 main 1388 1388 __________P___ -1 27.9792 152.493 2 10 154
1941225N21145 1941 44 WP MM NOT_NAMED 1941-08-19 09:00:00 NR 27.5000 152.700 main 1440 1440 __________O___ -1 27.5000 152.700 2 11 166
1941225N21145 1941 44 WP MM NOT_NAMED 1941-08-19 12:00:00 NR 26.9134 152.787 main 1493 1493 __________P___ -1 26.9134 152.787 2 12 176
1941225N21145 1941 44 WP MM NOT_NAMED 1941-08-19 15:00:00 NR 26.2846 152.787 main 1541 1541 __________P___ -1 26.2846 152.787 2 13 182
1941225N21145 1941 44 WP MM NOT_NAMED 1941-08-19 18:00:00 NR 25.6635 152.744 main 1581 1581 __________P___ -1 25.6635 152.744 2 12 184
1941225N21145 1941 44 WP MM NOT_NAMED 1941-08-19 21:00:00 NR 25.1000 152.700 main 1629 1629 __________O___ -1 25.1000 152.700 2 11 183
1941225N21145 1941 44 WP MM NOT_NAMED 1941-08-20 00:00:00 NR 24.5587 152.690 main 1670 1670 __________P___ -1 24.5587 152.690 2 10 0
1941225N21145 1941 44 WP MM NOT_NAMED 1941-08-20 03:00:00 NR 24.0949 152.690 main 1712 1712 __________P___ -1 24.0949 152.690 2 8 177
1941225N21145 1941 44 WP MM NOT_NAMED 1941-08-20 06:00:00 NR 23.7587 152.721 main 1738 1738 __________P___ -1 23.7587 152.721 2 5 169
1941225N21145 1941 44 WP MM NOT_NAMED 1941-08-20 09:00:00 NR 23.6000 152.800 main 1761 1761 __________O___ -1 23.6000 152.800 2 2 118
1941225N21145 1941 44 WP MM NOT_NAMED 1941-08-20 12:00:00 NR 23.6512 152.940 main 1759 1756 __________P___ -1 23.6512 152.940 2 4 48
1941225N21145 1941 44 WP MM NOT_NAMED 1941-08-20 15:00:00 NR 23.8729 153.131 main 1756 1744 __________P___ -1 23.8729 153.131 2 7 34
1941225N21145 1941 44 WP MM NOT_NAMED 1941-08-20 18:00:00 NR 24.2082 153.356 main 1751 1732 __________P___ -1 24.2082 153.356 2 8 31
1941225N21145 1941 44 WP MM NOT_NAMED 1941-08-20 21:00:00 NR 24.6000 153.600 main 1732 __________O___ -1 24.6000 153.600 2 9 29

Digital Typhoon Data and Search

About IBTrACS Database

This database is a web-friendly format of International Best Track Archive for Climate Stewardship (IBTrACS), a global best track data archive curated by NOAA dating back to 1842.

Updated: 2021-10-19